Terminal Aerodrome Forecast
Issued by NWS

Home | Current Version | Previous Version | Text Only | Print | Product List | Glossary On
Versions: 1 2 3 4 5 6 7 8 9 10 11 12 13 14 15 16 17 18 19 20 21 22 23
000
FTUS42 KILM 301730
TAFCRE
TAF
KCRE 301730Z 3018/0118 11014G19KT P6SM SCT025 BKN040
      TEMPO 3019/3023 BKN025
     FM302300 11007KT P6SM SCT010 OVC020
     FM010500 14008KT P6SM SCT005 OVC015
     FM010800 17009KT P6SM VCSH BKN005 OVC010
     FM011300 18012KT P6SM VCSH BKN015 OVC025=

USA.gov is the U.S. government's official web portal to all federal, state and local government web resources and services.